CPX322 Details

Departure: Lehigh Valley International Airport (KABE)
Arrival: Chicago/Rockford International Airport (KRFD) at N/A
Route: PSB J60 JOT V171 RFD
Notes:


Current Weather Information
KABE 250351Z 09003KT 10SM BKN075 18/12 A3026 RMK AO2 SLP244 T01830117
KRFD 250354Z 08006KT 10SM BKN250 16/12 A3022 RMK AO2 SLP231 T01560117